createdAt,value
2018-09-20T00:01:18.004Z,97401.43
2018-09-20T00:06:12.457Z,97399.80
2018-09-20T00:11:07.380Z,97397.60
2018-09-20T00:16:01.801Z,97401.58
2018-09-20T00:20:56.257Z,97399.09
2018-09-20T00:25:50.677Z,97398.16
2018-09-20T00:30:45.084Z,97400.34
2018-09-20T00:35:39.564Z,97389.32
2018-09-20T00:40:34.002Z,97391.12
2018-09-20T00:45:28.427Z,97388.64
2018-09-20T00:50:22.900Z,97398.63
2018-09-20T00:55:17.340Z,97390.38
2018-09-20T01:00:11.869Z,97395.92
2018-09-20T01:05:06.635Z,97389.02
2018-09-20T01:10:01.085Z,97396.93
2018-09-20T01:14:55.557Z,97391.58
2018-09-20T01:19:50.017Z,97397.59
2018-09-20T01:24:44.499Z,97398.00
2018-09-20T01:29:38.932Z,97402.16
2018-09-20T01:34:33.404Z,97405.02
2018-09-20T01:39:27.849Z,97396.61
2018-09-20T01:44:22.293Z,97402.06
2018-09-20T01:49:16.728Z,97410.27
2018-09-20T01:54:11.160Z,97407.09
2018-09-20T01:59:05.628Z,97396.91
2018-09-20T02:04:00.113Z,97400.59
2018-09-20T02:08:54.636Z,97402.41
2018-09-20T02:13:49.080Z,97393.34
2018-09-20T02:18:43.563Z,97391.98
2018-09-20T02:23:38.020Z,97393.48
2018-09-20T02:28:32.444Z,97387.58
2018-09-20T02:33:26.976Z,97384.90
2018-09-20T02:38:21.448Z,97380.93
2018-09-20T02:43:15.934Z,97375.64
2018-09-20T02:48:10.365Z,97383.36
2018-09-20T02:53:05.004Z,97388.72
2018-09-20T02:57:59.699Z,97386.05
2018-09-20T03:02:54.156Z,97385.64
2018-09-20T03:07:48.608Z,97386.64
2018-09-20T03:12:43.087Z,97391.97
2018-09-20T03:17:37.563Z,97397.94
2018-09-20T03:22:32.017Z,97394.47
2018-09-20T03:27:26.512Z,97392.33
2018-09-20T03:32:20.936Z,97393.89
2018-09-20T03:37:15.406Z,97389.06
2018-09-20T03:42:09.944Z,97385.34
2018-09-20T03:47:04.412Z,97389.31
2018-09-20T03:51:58.901Z,97390.59
2018-09-20T03:56:53.514Z,97392.94
2018-09-20T04:01:48.004Z,97404.70
2018-09-20T04:06:42.560Z,97419.21
2018-09-20T04:11:37.129Z,97420.88
2018-09-20T04:16:31.648Z,97422.46
2018-09-20T04:21:34.610Z,97408.70
2018-09-20T04:26:29.696Z,97410.16
2018-09-20T04:31:24.531Z,97412.47
2018-09-20T04:36:19.001Z,97410.27
2018-09-20T04:41:13.560Z,97414.16
2018-09-20T04:46:08.128Z,97410.41
2018-09-20T04:51:02.760Z,97410.36
2018-09-20T04:55:57.341Z,97419.16
2018-09-20T05:00:52.026Z,97426.88
2018-09-20T05:05:46.488Z,97420.69
2018-09-20T05:10:41.008Z,97421.02
2018-09-20T05:15:35.672Z,97417.21
2018-09-20T05:20:30.199Z,97428.62
2018-09-20T05:25:24.693Z,97428.69
2018-09-20T05:30:19.257Z,97420.55
2018-09-20T05:35:13.850Z,97430.13
2018-09-20T05:40:08.437Z,97433.11
2018-09-20T05:45:03.012Z,97438.45
2018-09-20T05:49:57.546Z,97440.13
2018-09-20T05:54:52.403Z,97444.85
2018-09-20T05:59:58.593Z,97452.61
2018-09-20T06:05:03.371Z,97452.52
2018-09-20T06:09:58.226Z,97453.49
2018-09-20T06:14:52.896Z,97447.73
2018-09-20T06:19:48.548Z,97456.94
2018-09-20T06:24:53.411Z,97452.41
2018-09-20T06:29:56.739Z,97453.47
2018-09-20T06:34:53.042Z,97448.71
2018-09-20T06:39:48.639Z,97456.67
2018-09-20T06:44:43.248Z,97452.80
2018-09-20T06:49:37.873Z,97455.22
2018-09-20T06:54:32.418Z,97452.70
2018-09-20T06:59:27.105Z,97462.55
2018-09-20T07:04:21.665Z,97468.44
2018-09-20T07:09:16.316Z,97459.45
2018-09-20T07:14:10.841Z,97459.44
2018-09-20T07:19:05.459Z,97461.30
2018-09-20T07:23:59.864Z,97461.57
2018-09-20T07:28:54.718Z,97458.66
2018-09-20T07:33:49.495Z,97462.61
2018-09-20T07:38:47.801Z,97455.13
2018-09-20T07:44:04.024Z,97459.10
2018-09-20T07:49:19.795Z,97462.84
2018-09-20T07:54:34.560Z,97461.17
2018-09-20T07:59:53.630Z,97454.39
2018-09-20T08:05:12.719Z,97454.95
2018-09-20T08:10:28.102Z,97457.95
2018-09-20T08:15:22.809Z,97457.30
2018-09-20T08:20:38.125Z,97451.89
2018-09-20T08:25:49.098Z,97458.18
2018-09-20T08:30:52.783Z,97454.23
2018-09-20T08:36:03.963Z,97451.97
2018-09-20T08:41:18.988Z,97462.97
2018-09-20T08:46:14.627Z,97447.00
2018-09-20T08:51:31.134Z,97441.90
2018-09-20T08:56:38.015Z,97443.61
2018-09-20T09:01:32.680Z,97432.04
2018-09-20T09:06:27.808Z,97428.80
2018-09-20T09:11:23.243Z,97429.73
2018-09-20T09:16:18.726Z,97420.55
2018-09-20T09:21:13.329Z,97418.95
2018-09-20T09:26:09.173Z,97412.51
2018-09-20T09:31:04.194Z,97400.41
2018-09-20T09:35:59.099Z,97389.84
2018-09-20T09:40:55.132Z,97376.71
2018-09-20T09:45:50.117Z,97373.34
2018-09-20T09:50:45.109Z,97371.70
2018-09-20T09:55:39.784Z,97369.05
2018-09-20T10:00:36.549Z,97365.11
2018-09-20T10:05:31.769Z,97355.17
2018-09-20T10:10:26.581Z,97351.92
2018-09-20T10:15:21.461Z,97346.72
2018-09-20T10:20:16.539Z,97349.30
2018-09-20T10:25:11.509Z,97337.70
2018-09-20T10:30:07.162Z,97333.53
2018-09-20T10:35:01.932Z,97326.26
2018-09-20T10:39:56.893Z,97318.53
2018-09-20T10:44:52.583Z,97319.99
2018-09-20T10:49:47.308Z,97313.71
2018-09-20T10:54:54.408Z,97299.20
2018-09-20T11:00:10.317Z,97300.25
2018-09-20T11:05:11.317Z,97294.67
2018-09-20T11:10:07.306Z,97290.25
2018-09-20T11:15:02.377Z,97283.73
2018-09-20T11:19:58.776Z,97276.53
2018-09-20T11:24:54.810Z,97261.38
2018-09-20T11:29:49.630Z,97261.87
2018-09-20T11:35:22.131Z,97265.17
2018-09-20T11:40:17.248Z,97255.70
2018-09-20T11:45:12.012Z,97262.36
2018-09-20T11:50:07.545Z,97250.64
2018-09-20T11:55:02.893Z,97247.78
2018-09-20T11:59:57.737Z,97244.72
2018-09-20T12:04:52.321Z,97231.57
2018-09-20T12:09:46.834Z,97215.22
2018-09-20T12:14:41.993Z,97208.09
2018-09-20T12:19:38.418Z,97208.02
2018-09-20T12:24:33.221Z,97198.81
2018-09-20T12:29:27.777Z,97190.88
2018-09-20T12:34:22.351Z,97186.73
2018-09-20T12:39:17.107Z,97188.07
2018-09-20T12:44:11.645Z,97181.62
2018-09-20T12:49:06.349Z,97174.03
2018-09-20T12:54:00.853Z,97175.11
2018-09-20T12:58:55.630Z,97166.39
2018-09-20T13:03:51.808Z,97164.92
2018-09-20T13:08:46.860Z,97155.16
2018-09-20T13:13:42.257Z,97150.03
2018-09-20T13:18:36.795Z,97144.23
2018-09-20T13:23:31.216Z,97135.16
2018-09-20T13:28:25.880Z,97126.84
2018-09-20T13:33:20.304Z,97120.70
2018-09-20T13:38:14.784Z,97113.58
2018-09-20T13:43:09.236Z,97106.92
2018-09-20T13:48:03.633Z,97102.33
2018-09-20T13:52:58.101Z,97096.03
2018-09-20T13:57:52.632Z,97087.64
2018-09-20T14:02:47.692Z,97089.63
2018-09-20T14:07:42.288Z,97079.28
2018-09-20T14:12:36.718Z,97077.09
2018-09-20T14:17:31.929Z,97069.55
2018-09-20T14:22:26.382Z,97059.95
2018-09-20T14:27:23.041Z,97057.79
2018-09-20T14:32:17.540Z,97058.60
2018-09-20T14:37:12.390Z,97050.55
2018-09-20T14:42:07.160Z,97049.98
2018-09-20T14:47:01.628Z,97047.08
2018-09-20T14:51:56.389Z,97040.20
2018-09-20T14:56:51.010Z,97034.41
2018-09-20T15:01:45.503Z,97023.13
2018-09-20T15:06:40.783Z,97016.88
2018-09-20T15:11:35.810Z,97012.12
2018-09-20T15:16:30.486Z,97014.70
2018-09-20T15:21:24.996Z,97006.11
2018-09-20T15:26:20.356Z,97007.39
2018-09-20T15:31:14.922Z,96996.23
2018-09-20T15:36:10.364Z,97002.02
2018-09-20T15:41:04.833Z,96996.77
2018-09-20T15:45:59.661Z,96997.63
2018-09-20T15:50:54.801Z,96997.60
2018-09-20T15:55:50.122Z,96988.59
2018-09-20T16:00:45.053Z,96986.50
2018-09-20T16:05:40.206Z,96983.78
2018-09-20T16:10:34.837Z,96979.20
2018-09-20T16:15:29.735Z,96979.63
2018-09-20T16:20:24.344Z,96979.58
2018-09-20T16:25:19.025Z,96967.28
2018-09-20T16:30:41.243Z,96973.41
2018-09-20T16:35:49.471Z,96963.73
2018-09-20T16:40:47.178Z,96965.95
2018-09-20T16:45:42.279Z,96964.53
2018-09-20T16:50:37.624Z,96958.40
2018-09-20T16:55:32.588Z,96959.16
2018-09-20T17:00:27.502Z,96965.55
2018-09-20T17:05:24.930Z,96967.96
2018-09-20T17:10:21.116Z,96968.27
2018-09-20T17:15:15.797Z,96968.20
2018-09-20T17:20:10.769Z,96961.90
2018-09-20T17:25:05.525Z,96966.32
2018-09-20T17:30:00.077Z,96978.38
2018-09-20T17:34:55.258Z,96973.44
2018-09-20T17:39:52.542Z,96981.14
2018-09-20T17:44:47.118Z,96982.92
2018-09-20T17:49:41.672Z,96984.80
2018-09-20T17:54:36.904Z,96980.61
2018-09-20T17:59:31.409Z,96983.32
2018-09-20T18:04:26.037Z,96985.28
2018-09-20T18:09:20.605Z,96982.37
2018-09-20T18:14:15.225Z,96975.41
2018-09-20T18:19:09.828Z,96974.53
2018-09-20T18:24:05.549Z,96973.84
2018-09-20T18:29:00.028Z,96979.14
2018-09-20T18:33:55.884Z,96979.65
2018-09-20T18:38:50.421Z,96985.41
2018-09-20T18:43:45.249Z,96986.31
2018-09-20T18:48:39.802Z,96986.31
2018-09-20T18:53:34.421Z,96985.48
2018-09-20T18:58:28.962Z,96980.41
2018-09-20T19:03:24.665Z,96981.92
2018-09-20T19:08:19.838Z,96979.94
2018-09-20T19:13:15.829Z,96982.99
2018-09-20T19:18:10.718Z,96982.52
2018-09-20T19:23:05.283Z,96978.07
2018-09-20T19:27:59.964Z,96989.87
2018-09-20T19:32:54.842Z,96979.82
2018-09-20T19:37:49.377Z,96981.44
2018-09-20T19:42:43.954Z,96977.77
2018-09-20T19:47:38.500Z,96981.80
2018-09-20T19:52:33.073Z,96985.30
2018-09-20T19:57:27.838Z,96988.22
2018-09-20T20:02:22.397Z,96984.78
2018-09-20T20:07:16.975Z,96988.77
2018-09-20T20:12:11.581Z,96980.80
2018-09-20T20:17:07.040Z,96986.12
2018-09-20T20:22:01.745Z,96985.36
2018-09-20T20:26:56.431Z,96989.13
2018-09-20T20:31:51.420Z,96979.28
2018-09-20T20:36:46.296Z,96980.91
2018-09-20T20:41:41.160Z,96983.56
2018-09-20T20:46:35.910Z,96978.50
2018-09-20T20:51:30.669Z,96980.89
2018-09-20T20:56:26.249Z,96969.47
2018-09-20T21:01:21.805Z,96965.45
2018-09-20T21:06:17.429Z,96962.30
2018-09-20T21:11:12.000Z,96965.19
2018-09-20T21:16:06.775Z,96959.61
2018-09-20T21:21:01.299Z,96952.47
2018-09-20T21:25:55.892Z,96958.56
2018-09-20T21:30:50.519Z,96947.95
2018-09-20T21:35:45.043Z,96947.67
2018-09-20T21:40:39.555Z,96951.39
2018-09-20T21:45:34.093Z,96949.00
2018-09-20T21:50:28.649Z,96944.21
2018-09-20T21:55:23.197Z,96942.84
2018-09-20T22:00:17.917Z,96939.91
2018-09-20T22:05:12.666Z,96929.53
2018-09-20T22:10:07.284Z,96928.48
2018-09-20T22:15:01.901Z,96927.41
2018-09-20T22:19:56.471Z,96922.03
2018-09-20T22:24:50.978Z,96919.92
2018-09-20T22:29:45.777Z,96914.61
2018-09-20T22:34:40.370Z,96914.63
2018-09-20T22:39:35.276Z,96910.41
2018-09-20T22:44:29.802Z,96907.77
2018-09-20T22:49:24.329Z,96907.43
2018-09-20T22:54:18.918Z,96910.56
2018-09-20T22:59:13.449Z,96905.33
2018-09-20T23:04:08.009Z,96909.78
2018-09-20T23:09:02.557Z,96906.52
2018-09-20T23:13:57.144Z,96910.72
2018-09-20T23:18:51.809Z,96908.84
2018-09-20T23:23:46.313Z,96914.42
2018-09-20T23:28:40.800Z,96907.53
2018-09-20T23:33:35.320Z,96905.07
2018-09-20T23:38:29.996Z,96898.14
2018-09-20T23:43:24.636Z,96896.52
2018-09-20T23:48:19.236Z,96894.13
2018-09-20T23:53:13.665Z,96885.17
2018-09-20T23:58:08.261Z,96880.91
